sensor_id;sensor_type;location;lat;lon;timestamp;temperature;humidity
36458;DHT22;22480;50.546;12.292;2024-01-06T00:01:40;1.40;99.90
36458;DHT22;22480;50.546;12.292;2024-01-06T00:04:06;1.40;99.90
36458;DHT22;22480;50.546;12.292;2024-01-06T00:06:32;1.40;99.90
36458;DHT22;22480;50.546;12.292;2024-01-06T00:08:57;1.50;99.90
36458;DHT22;22480;50.546;12.292;2024-01-06T00:11:23;1.60;99.90
36458;DHT22;22480;50.546;12.292;2024-01-06T00:13:49;1.50;99.90
36458;DHT22;22480;50.546;12.292;2024-01-06T00:16:19;1.50;99.90
36458;DHT22;22480;50.546;12.292;2024-01-06T00:18:46;1.50;99.90
36458;DHT22;22480;50.546;12.292;2024-01-06T00:21:12;1.50;99.90
36458;DHT22;22480;50.546;12.292;2024-01-06T00:23:40;1.50;99.90
36458;DHT22;22480;50.546;12.292;2024-01-06T00:26:05;1.50;99.90
36458;DHT22;22480;50.546;12.292;2024-01-06T00:28:31;1.40;99.90
36458;DHT22;22480;50.546;12.292;2024-01-06T00:30:57;1.50;99.90
36458;DHT22;22480;50.546;12.292;2024-01-06T00:33:22;1.50;99.90
36458;DHT22;22480;50.546;12.292;2024-01-06T00:35:48;1.50;99.90
36458;DHT22;22480;50.546;12.292;2024-01-06T00:38:14;1.50;99.90
36458;DHT22;22480;50.546;12.292;2024-01-06T00:40:40;1.50;99.90
36458;DHT22;22480;50.546;12.292;2024-01-06T00:43:05;1.50;99.90
36458;DHT22;22480;50.546;12.292;2024-01-06T00:45:31;1.40;99.90
36458;DHT22;22480;50.546;12.292;2024-01-06T00:47:57;1.50;99.90
36458;DHT22;22480;50.546;12.292;2024-01-06T00:50:23;1.50;99.90
36458;DHT22;22480;50.546;12.292;2024-01-06T00:52:49;1.40;99.90
36458;DHT22;22480;50.546;12.292;2024-01-06T00:55:21;1.40;99.90
36458;DHT22;22480;50.546;12.292;2024-01-06T00:57:47;1.30;99.90
36458;DHT22;22480;50.546;12.292;2024-01-06T01:00:13;1.30;99.90
36458;DHT22;22480;50.546;12.292;2024-01-06T01:02:39;1.30;99.90
36458;DHT22;22480;50.546;12.292;2024-01-06T01:05:05;1.30;99.90
36458;DHT22;22480;50.546;12.292;2024-01-06T01:07:33;1.30;99.90
36458;DHT22;22480;50.546;12.292;2024-01-06T01:09:58;1.30;99.90
36458;DHT22;22480;50.546;12.292;2024-01-06T01:12:24;1.30;99.90
36458;DHT22;22480;50.546;12.292;2024-01-06T01:14:51;1.20;99.90
36458;DHT22;22480;50.546;12.292;2024-01-06T01:17:17;1.10;99.90
36458;DHT22;22480;50.546;12.292;2024-01-06T01:19:42;1.10;99.90
36458;DHT22;22480;50.546;12.292;2024-01-06T01:22:08;1.10;99.90
36458;DHT22;22480;50.546;12.292;2024-01-06T01:24:34;1.00;99.90
36458;DHT22;22480;50.546;12.292;2024-01-06T01:27:00;0.90;99.90
36458;DHT22;22480;50.546;12.292;2024-01-06T01:29:26;0.80;99.90
36458;DHT22;22480;50.546;12.292;2024-01-06T01:31:51;0.70;99.90
36458;DHT22;22480;50.546;12.292;2024-01-06T01:34:17;0.70;99.90
36458;DHT22;22480;50.546;12.292;2024-01-06T01:36:43;0.70;99.90
36458;DHT22;22480;50.546;12.292;2024-01-06T01:39:09;0.70;99.90
36458;DHT22;22480;50.546;12.292;2024-01-06T01:41:35;0.70;99.90
36458;DHT22;22480;50.546;12.292;2024-01-06T01:44:01;0.60;99.90
36458;DHT22;22480;50.546;12.292;2024-01-06T01:46:28;0.60;99.90
36458;DHT22;22480;50.546;12.292;2024-01-06T01:48:55;0.50;99.90
36458;DHT22;22480;50.546;12.292;2024-01-06T01:51:22;0.50;99.90
36458;DHT22;22480;50.546;12.292;2024-01-06T01:53:49;0.40;99.90
36458;DHT22;22480;50.546;12.292;2024-01-06T01:56:16;0.40;99.90
36458;DHT22;22480;50.546;12.292;2024-01-06T01:58:42;0.50;99.90
36458;DHT22;22480;50.546;12.292;2024-01-06T02:01:08;0.50;99.90
36458;DHT22;22480;50.546;12.292;2024-01-06T02:03:35;0.50;99.90
36458;DHT22;22480;50.546;12.292;2024-01-06T02:06:01;0.50;99.90
36458;DHT22;22480;50.546;12.292;2024-01-06T02:08:27;0.50;99.90
36458;DHT22;22480;50.546;12.292;2024-01-06T02:10:55;0.50;99.90
36458;DHT22;22480;50.546;12.292;2024-01-06T02:13:22;0.40;99.90
36458;DHT22;22480;50.546;12.292;2024-01-06T02:15:49;0.40;99.90
36458;DHT22;22480;50.546;12.292;2024-01-06T02:18:15;0.40;99.90
36458;DHT22;22480;50.546;12.292;2024-01-06T02:20:43;0.40;99.90
36458;DHT22;22480;50.546;12.292;2024-01-06T02:23:09;0.40;99.90
36458;DHT22;22480;50.546;12.292;2024-01-06T02:25:35;0.40;99.90
36458;DHT22;22480;50.546;12.292;2024-01-06T02:28:01;0.40;99.90
36458;DHT22;22480;50.546;12.292;2024-01-06T02:30:27;0.40;99.90
36458;DHT22;22480;50.546;12.292;2024-01-06T02:32:52;0.30;99.90
36458;DHT22;22480;50.546;12.292;2024-01-06T02:35:18;0.20;99.90
36458;DHT22;22480;50.546;12.292;2024-01-06T02:37:44;0.30;99.90
36458;DHT22;22480;50.546;12.292;2024-01-06T02:40:10;0.20;99.90
36458;DHT22;22480;50.546;12.292;2024-01-06T02:42:36;0.30;99.90
36458;DHT22;22480;50.546;12.292;2024-01-06T02:45:02;0.30;99.90
36458;DHT22;22480;50.546;12.292;2024-01-06T02:47:27;0.20;99.90
36458;DHT22;22480;50.546;12.292;2024-01-06T02:49:53;0.20;99.90
36458;DHT22;22480;50.546;12.292;2024-01-06T02:52:19;0.10;99.90
36458;DHT22;22480;50.546;12.292;2024-01-06T02:54:45;0.10;99.90
36458;DHT22;22480;50.546;12.292;2024-01-06T02:57:11;0.10;99.90
36458;DHT22;22480;50.546;12.292;2024-01-06T02:59:39;0.00;99.90
36458;DHT22;22480;50.546;12.292;2024-01-06T03:02:04;-0.10;99.90
36458;DHT22;22480;50.546;12.292;2024-01-06T03:04:30;0.00;99.90
36458;DHT22;22480;50.546;12.292;2024-01-06T03:06:56;0.00;99.90
36458;DHT22;22480;50.546;12.292;2024-01-06T03:09:22;0.10;99.90
36458;DHT22;22480;50.546;12.292;2024-01-06T03:11:47;0.10;99.90
36458;DHT22;22480;50.546;12.292;2024-01-06T03:14:13;0.20;99.90
36458;DHT22;22480;50.546;12.292;2024-01-06T03:16:39;0.30;99.90
36458;DHT22;22480;50.546;12.292;2024-01-06T03:19:05;0.40;99.90
36458;DHT22;22480;50.546;12.292;2024-01-06T03:21:31;0.40;99.90
36458;DHT22;22480;50.546;12.292;2024-01-06T03:23:56;0.40;99.90
36458;DHT22;22480;50.546;12.292;2024-01-06T03:26:22;0.30;99.90
36458;DHT22;22480;50.546;12.292;2024-01-06T03:28:49;0.20;99.90
36458;DHT22;22480;50.546;12.292;2024-01-06T03:31:15;0.10;99.90
36458;DHT22;22480;50.546;12.292;2024-01-06T03:33:42;0.00;99.90
36458;DHT22;22480;50.546;12.292;2024-01-06T03:36:08;0.00;99.90
36458;DHT22;22480;50.546;12.292;2024-01-06T03:38:34;0.00;99.90
36458;DHT22;22480;50.546;12.292;2024-01-06T03:40:59;-0.10;99.90
36458;DHT22;22480;50.546;12.292;2024-01-06T03:43:25;-0.10;99.90
36458;DHT22;22480;50.546;12.292;2024-01-06T03:45:51;0.00;99.90
36458;DHT22;22480;50.546;12.292;2024-01-06T03:48:17;0.00;99.90
36458;DHT22;22480;50.546;12.292;2024-01-06T03:50:42;0.10;99.90
36458;DHT22;22480;50.546;12.292;2024-01-06T03:53:08;0.10;99.90
36458;DHT22;22480;50.546;12.292;2024-01-06T03:55:34;0.20;99.90
36458;DHT22;22480;50.546;12.292;2024-01-06T03:57:59;0.10;99.90
36458;DHT22;22480;50.546;12.292;2024-01-06T04:00:25;0.10;99.90
36458;DHT22;22480;50.546;12.292;2024-01-06T04:02:51;0.00;99.90
36458;DHT22;22480;50.546;12.292;2024-01-06T04:05:17;0.00;99.90
36458;DHT22;22480;50.546;12.292;2024-01-06T04:07:43;0.00;99.90
36458;DHT22;22480;50.546;12.292;2024-01-06T04:10:09;0.00;99.90
36458;DHT22;22480;50.546;12.292;2024-01-06T04:12:35;0.00;99.90
36458;DHT22;22480;50.546;12.292;2024-01-06T04:15:00;0.00;99.90
36458;DHT22;22480;50.546;12.292;2024-01-06T04:17:26;0.00;99.90
36458;DHT22;22480;50.546;12.292;2024-01-06T04:19:52;0.10;99.90
36458;DHT22;22480;50.546;12.292;2024-01-06T04:22:18;0.10;99.90
36458;DHT22;22480;50.546;12.292;2024-01-06T04:24:44;0.10;99.90
36458;DHT22;22480;50.546;12.292;2024-01-06T04:27:10;0.10;99.90
36458;DHT22;22480;50.546;12.292;2024-01-06T04:29:35;0.00;99.90
36458;DHT22;22480;50.546;12.292;2024-01-06T04:32:01;0.00;99.90
36458;DHT22;22480;50.546;12.292;2024-01-06T04:34:27;-0.20;99.90
36458;DHT22;22480;50.546;12.292;2024-01-06T04:36:53;-0.20;99.90
36458;DHT22;22480;50.546;12.292;2024-01-06T04:39:18;-0.10;99.90
36458;DHT22;22480;50.546;12.292;2024-01-06T04:41:44;0.00;99.90
36458;DHT22;22480;50.546;12.292;2024-01-06T04:44:10;0.00;99.90
36458;DHT22;22480;50.546;12.292;2024-01-06T04:46:36;0.10;99.90
36458;DHT22;22480;50.546;12.292;2024-01-06T04:49:01;0.10;99.90
36458;DHT22;22480;50.546;12.292;2024-01-06T04:51:28;0.20;99.90
36458;DHT22;22480;50.546;12.292;2024-01-06T04:53:53;0.20;99.90
36458;DHT22;22480;50.546;12.292;2024-01-06T04:56:19;0.20;99.90
36458;DHT22;22480;50.546;12.292;2024-01-06T04:58:45;0.20;99.90
36458;DHT22;22480;50.546;12.292;2024-01-06T05:01:11;0.30;99.90
36458;DHT22;22480;50.546;12.292;2024-01-06T05:03:37;0.30;99.90
36458;DHT22;22480;50.546;12.292;2024-01-06T05:06:03;0.50;99.90
36458;DHT22;22480;50.546;12.292;2024-01-06T05:08:29;0.60;99.90
36458;DHT22;22480;50.546;12.292;2024-01-06T05:10:56;0.70;99.90
36458;DHT22;22480;50.546;12.292;2024-01-06T05:13:22;0.80;99.90
36458;DHT22;22480;50.546;12.292;2024-01-06T05:15:48;0.80;99.90
36458;DHT22;22480;50.546;12.292;2024-01-06T05:18:13;0.90;99.90
36458;DHT22;22480;50.546;12.292;2024-01-06T05:20:40;0.90;99.90
36458;DHT22;22480;50.546;12.292;2024-01-06T05:23:07;0.90;99.90
36458;DHT22;22480;50.546;12.292;2024-01-06T05:25:32;0.80;99.90
36458;DHT22;22480;50.546;12.292;2024-01-06T05:27:58;0.80;99.90
36458;DHT22;22480;50.546;12.292;2024-01-06T05:30:24;0.80;99.90
36458;DHT22;22480;50.546;12.292;2024-01-06T05:32:50;0.80;99.90
36458;DHT22;22480;50.546;12.292;2024-01-06T05:35:18;0.80;99.90
36458;DHT22;22480;50.546;12.292;2024-01-06T05:37:44;0.90;99.90
36458;DHT22;22480;50.546;12.292;2024-01-06T05:40:10;0.80;99.90
36458;DHT22;22480;50.546;12.292;2024-01-06T05:42:36;0.80;99.90
36458;DHT22;22480;50.546;12.292;2024-01-06T05:45:02;0.80;99.90
36458;DHT22;22480;50.546;12.292;2024-01-06T05:47:28;0.80;99.90
36458;DHT22;22480;50.546;12.292;2024-01-06T05:49:54;0.60;99.90
36458;DHT22;22480;50.546;12.292;2024-01-06T05:52:19;0.50;99.90
36458;DHT22;22480;50.546;12.292;2024-01-06T05:54:45;0.40;99.90
36458;DHT22;22480;50.546;12.292;2024-01-06T05:57:11;0.30;99.90
36458;DHT22;22480;50.546;12.292;2024-01-06T05:59:37;0.10;99.90
36458;DHT22;22480;50.546;12.292;2024-01-06T06:02:03;0.00;99.90
36458;DHT22;22480;50.546;12.292;2024-01-06T06:04:29;0.00;99.90
36458;DHT22;22480;50.546;12.292;2024-01-06T06:06:54;0.00;99.90
36458;DHT22;22480;50.546;12.292;2024-01-06T06:09:20;0.00;99.90
36458;DHT22;22480;50.546;12.292;2024-01-06T06:11:47;0.10;99.90
36458;DHT22;22480;50.546;12.292;2024-01-06T06:14:13;0.00;99.90
36458;DHT22;22480;50.546;12.292;2024-01-06T06:16:39;0.00;99.90
36458;DHT22;22480;50.546;12.292;2024-01-06T06:19:05;0.10;99.90
36458;DHT22;22480;50.546;12.292;2024-01-06T06:21:31;0.00;99.90
36458;DHT22;22480;50.546;12.292;2024-01-06T06:23:57;0.10;99.90
36458;DHT22;22480;50.546;12.292;2024-01-06T06:26:23;0.20;99.90
36458;DHT22;22480;50.546;12.292;2024-01-06T06:28:48;0.40;99.90
36458;DHT22;22480;50.546;12.292;2024-01-06T06:31:14;0.50;99.90
36458;DHT22;22480;50.546;12.292;2024-01-06T06:33:40;0.50;99.90
36458;DHT22;22480;50.546;12.292;2024-01-06T06:36:06;0.50;99.90
36458;DHT22;22480;50.546;12.292;2024-01-06T06:38:32;0.50;99.90
36458;DHT22;22480;50.546;12.292;2024-01-06T06:40:57;0.50;99.90
36458;DHT22;22480;50.546;12.292;2024-01-06T06:43:23;0.50;99.90
36458;DHT22;22480;50.546;12.292;2024-01-06T06:45:49;0.50;99.90
36458;DHT22;22480;50.546;12.292;2024-01-06T06:48:14;0.50;99.90
36458;DHT22;22480;50.546;12.292;2024-01-06T06:50:40;0.50;99.90
36458;DHT22;22480;50.546;12.292;2024-01-06T06:53:08;0.40;99.90
36458;DHT22;22480;50.546;12.292;2024-01-06T06:55:33;0.20;99.90
36458;DHT22;22480;50.546;12.292;2024-01-06T06:57:59;0.20;99.90
36458;DHT22;22480;50.546;12.292;2024-01-06T07:00:25;-0.10;99.90
36458;DHT22;22480;50.546;12.292;2024-01-06T07:02:50;-0.10;99.90
36458;DHT22;22480;50.546;12.292;2024-01-06T07:05:16;-0.10;99.90
36458;DHT22;22480;50.546;12.292;2024-01-06T07:07:42;-0.20;99.90
36458;DHT22;22480;50.546;12.292;2024-01-06T07:10:12;-0.20;99.90
36458;DHT22;22480;50.546;12.292;2024-01-06T07:12:38;-0.30;99.90
36458;DHT22;22480;50.546;12.292;2024-01-06T07:15:04;-0.50;99.90
36458;DHT22;22480;50.546;12.292;2024-01-06T07:17:30;-0.50;99.90
36458;DHT22;22480;50.546;12.292;2024-01-06T07:19:56;-0.40;99.90
36458;DHT22;22480;50.546;12.292;2024-01-06T07:22:21;-0.50;99.90
36458;DHT22;22480;50.546;12.292;2024-01-06T07:24:47;-0.50;99.90
36458;DHT22;22480;50.546;12.292;2024-01-06T07:27:13;-0.60;99.90
36458;DHT22;22480;50.546;12.292;2024-01-06T07:29:39;-0.70;99.90
36458;DHT22;22480;50.546;12.292;2024-01-06T07:32:04;-0.70;99.90
36458;DHT22;22480;50.546;12.292;2024-01-06T07:34:32;-0.60;99.90
36458;DHT22;22480;50.546;12.292;2024-01-06T07:36:57;-0.70;99.90
36458;DHT22;22480;50.546;12.292;2024-01-06T07:39:23;-0.50;99.90
36458;DHT22;22480;50.546;12.292;2024-01-06T07:41:50;-0.50;99.90
36458;DHT22;22480;50.546;12.292;2024-01-06T07:44:16;-0.50;99.90
36458;DHT22;22480;50.546;12.292;2024-01-06T07:46:48;-0.40;99.90
36458;DHT22;22480;50.546;12.292;2024-01-06T07:49:13;-0.30;99.90
36458;DHT22;22480;50.546;12.292;2024-01-06T07:51:39;-0.20;99.90
36458;DHT22;22480;50.546;12.292;2024-01-06T07:54:05;-0.10;99.90
36458;DHT22;22480;50.546;12.292;2024-01-06T07:56:32;0.00;99.90
36458;DHT22;22480;50.546;12.292;2024-01-06T07:58:58;0.30;99.90
36458;DHT22;22480;50.546;12.292;2024-01-06T08:01:24;0.50;99.90
36458;DHT22;22480;50.546;12.292;2024-01-06T08:03:49;0.60;99.90
36458;DHT22;22480;50.546;12.292;2024-01-06T08:06:15;0.60;99.90
36458;DHT22;22480;50.546;12.292;2024-01-06T08:08:41;0.70;99.90
36458;DHT22;22480;50.546;12.292;2024-01-06T08:11:07;0.80;99.90
36458;DHT22;22480;50.546;12.292;2024-01-06T08:13:33;0.90;99.90
36458;DHT22;22480;50.546;12.292;2024-01-06T08:15:58;0.90;99.90
36458;DHT22;22480;50.546;12.292;2024-01-06T08:18:24;0.90;99.90
36458;DHT22;22480;50.546;12.292;2024-01-06T08:20:50;1.00;99.90
36458;DHT22;22480;50.546;12.292;2024-01-06T08:23:16;1.00;99.90
36458;DHT22;22480;50.546;12.292;2024-01-06T08:25:44;1.20;99.90
36458;DHT22;22480;50.546;12.292;2024-01-06T08:28:11;1.40;99.90
36458;DHT22;22480;50.546;12.292;2024-01-06T08:30:37;1.50;99.90
36458;DHT22;22480;50.546;12.292;2024-01-06T08:33:03;1.70;99.90
36458;DHT22;22480;50.546;12.292;2024-01-06T08:35:29;1.80;99.90
36458;DHT22;22480;50.546;12.292;2024-01-06T08:37:55;2.00;99.90
36458;DHT22;22480;50.546;12.292;2024-01-06T08:40:21;2.20;99.90
36458;DHT22;22480;50.546;12.292;2024-01-06T08:42:47;2.40;99.90
36458;DHT22;22480;50.546;12.292;2024-01-06T08:45:12;2.50;99.90
36458;DHT22;22480;50.546;12.292;2024-01-06T08:47:38;2.60;99.90
36458;DHT22;22480;50.546;12.292;2024-01-06T08:50:04;2.60;99.90
36458;DHT22;22480;50.546;12.292;2024-01-06T08:52:30;2.60;99.90
36458;DHT22;22480;50.546;12.292;2024-01-06T08:54:56;2.60;99.90
36458;DHT22;22480;50.546;12.292;2024-01-06T08:57:21;2.60;99.90
36458;DHT22;22480;50.546;12.292;2024-01-06T08:59:47;2.70;99.90
36458;DHT22;22480;50.546;12.292;2024-01-06T09:02:13;2.80;99.90
36458;DHT22;22480;50.546;12.292;2024-01-06T09:04:38;2.90;99.90
36458;DHT22;22480;50.546;12.292;2024-01-06T09:07:04;3.00;99.90
36458;DHT22;22480;50.546;12.292;2024-01-06T09:09:30;3.10;99.90
36458;DHT22;22480;50.546;12.292;2024-01-06T09:11:56;3.20;99.90
36458;DHT22;22480;50.546;12.292;2024-01-06T09:14:22;3.30;99.90
36458;DHT22;22480;50.546;12.292;2024-01-06T09:16:47;3.40;99.90
36458;DHT22;22480;50.546;12.292;2024-01-06T09:19:13;3.60;99.90
36458;DHT22;22480;50.546;12.292;2024-01-06T09:21:39;3.70;99.90
36458;DHT22;22480;50.546;12.292;2024-01-06T09:24:05;3.90;99.90
36458;DHT22;22480;50.546;12.292;2024-01-06T09:26:32;4.00;99.90
36458;DHT22;22480;50.546;12.292;2024-01-06T09:29:00;4.10;99.90
36458;DHT22;22480;50.546;12.292;2024-01-06T09:31:26;4.20;99.90
36458;DHT22;22480;50.546;12.292;2024-01-06T09:33:51;4.40;99.90
36458;DHT22;22480;50.546;12.292;2024-01-06T09:36:17;4.40;99.90
36458;DHT22;22480;50.546;12.292;2024-01-06T09:38:44;4.30;99.90
36458;DHT22;22480;50.546;12.292;2024-01-06T09:41:09;4.40;99.90
36458;DHT22;22480;50.546;12.292;2024-01-06T09:43:35;4.20;99.90
36458;DHT22;22480;50.546;12.292;2024-01-06T09:46:21;4.00;99.90
36458;DHT22;22480;50.546;12.292;2024-01-06T09:48:51;3.80;99.90
36458;DHT22;22480;50.546;12.292;2024-01-06T09:51:19;3.60;99.90
36458;DHT22;22480;50.546;12.292;2024-01-06T09:56:15;3.50;99.90
36458;DHT22;22480;50.546;12.292;2024-01-06T09:58:42;3.40;99.90
36458;DHT22;22480;50.546;12.292;2024-01-06T10:01:08;3.50;99.90
36458;DHT22;22480;50.546;12.292;2024-01-06T10:03:38;3.40;99.90
36458;DHT22;22480;50.546;12.292;2024-01-06T10:06:04;3.60;99.90
36458;DHT22;22480;50.546;12.292;2024-01-06T10:08:30;3.60;99.90
36458;DHT22;22480;50.546;12.292;2024-01-06T10:10:59;3.60;99.90
36458;DHT22;22480;50.546;12.292;2024-01-06T10:13:25;3.70;99.90
36458;DHT22;22480;50.546;12.292;2024-01-06T10:15:51;3.70;99.90
36458;DHT22;22480;50.546;12.292;2024-01-06T10:18:18;3.60;99.90
36458;DHT22;22480;50.546;12.292;2024-01-06T10:20:44;3.60;99.90
36458;DHT22;22480;50.546;12.292;2024-01-06T10:23:13;3.70;99.90
36458;DHT22;22480;50.546;12.292;2024-01-06T10:25:39;3.70;99.90
36458;DHT22;22480;50.546;12.292;2024-01-06T10:28:11;3.60;99.90
36458;DHT22;22480;50.546;12.292;2024-01-06T10:30:38;3.70;99.90
36458;DHT22;22480;50.546;12.292;2024-01-06T10:33:11;3.80;99.90
36458;DHT22;22480;50.546;12.292;2024-01-06T10:35:40;4.20;99.90
36458;DHT22;22480;50.546;12.292;2024-01-06T10:38:07;4.20;99.90
36458;DHT22;22480;50.546;12.292;2024-01-06T10:40:33;4.20;99.90
36458;DHT22;22480;50.546;12.292;2024-01-06T10:43:00;4.40;99.90
36458;DHT22;22480;50.546;12.292;2024-01-06T10:45:28;4.70;99.90
36458;DHT22;22480;50.546;12.292;2024-01-06T10:47:55;4.60;99.90
36458;DHT22;22480;50.546;12.292;2024-01-06T10:50:21;4.60;99.90
36458;DHT22;22480;50.546;12.292;2024-01-06T10:52:48;4.60;99.90
36458;DHT22;22480;50.546;12.292;2024-01-06T10:55:15;4.50;99.90
36458;DHT22;22480;50.546;12.292;2024-01-06T10:57:46;4.50;99.90
36458;DHT22;22480;50.546;12.292;2024-01-06T11:00:12;4.50;99.90
36458;DHT22;22480;50.546;12.292;2024-01-06T11:02:39;4.30;99.90
36458;DHT22;22480;50.546;12.292;2024-01-06T11:05:05;4.50;99.90
36458;DHT22;22480;50.546;12.292;2024-01-06T11:07:36;4.40;99.90
36458;DHT22;22480;50.546;12.292;2024-01-06T11:10:10;4.30;99.90
36458;DHT22;22480;50.546;12.292;2024-01-06T11:12:37;4.20;99.90
36458;DHT22;22480;50.546;12.292;2024-01-06T11:15:04;4.10;99.90
36458;DHT22;22480;50.546;12.292;2024-01-06T11:17:55;4.10;99.90
36458;DHT22;22480;50.546;12.292;2024-01-06T11:20:26;4.20;99.90
36458;DHT22;22480;50.546;12.292;2024-01-06T11:22:52;4.20;99.90
36458;DHT22;22480;50.546;12.292;2024-01-06T11:25:22;4.30;99.90
36458;DHT22;22480;50.546;12.292;2024-01-06T11:27:49;4.20;99.90
36458;DHT22;22480;50.546;12.292;2024-01-06T11:30:25;4.20;99.90
36458;DHT22;22480;50.546;12.292;2024-01-06T11:32:56;4.30;99.90
36458;DHT22;22480;50.546;12.292;2024-01-06T11:35:29;4.40;99.90
36458;DHT22;22480;50.546;12.292;2024-01-06T11:37:56;4.40;99.90
36458;DHT22;22480;50.546;12.292;2024-01-06T11:45:30;4.50;99.90
36458;DHT22;22480;50.546;12.292;2024-01-06T11:47:59;4.60;99.90
36458;DHT22;22480;50.546;12.292;2024-01-06T11:50:36;4.50;99.90
36458;DHT22;22480;50.546;12.292;2024-01-06T11:53:03;4.50;99.90
36458;DHT22;22480;50.546;12.292;2024-01-06T11:55:29;4.40;99.90
36458;DHT22;22480;50.546;12.292;2024-01-06T11:57:59;4.40;99.90
36458;DHT22;22480;50.546;12.292;2024-01-06T12:00:35;4.60;99.90
36458;DHT22;22480;50.546;12.292;2024-01-06T12:03:05;4.60;99.90
36458;DHT22;22480;50.546;12.292;2024-01-06T12:05:30;4.80;99.90
36458;DHT22;22480;50.546;12.292;2024-01-06T12:07:58;4.80;99.90
36458;DHT22;22480;50.546;12.292;2024-01-06T12:10:25;4.90;99.90
36458;DHT22;22480;50.546;12.292;2024-01-06T12:13:02;4.90;99.90
36458;DHT22;22480;50.546;12.292;2024-01-06T12:15:30;4.90;99.90
36458;DHT22;22480;50.546;12.292;2024-01-06T12:17:57;4.90;99.90
36458;DHT22;22480;50.546;12.292;2024-01-06T12:20:24;4.90;99.90
36458;DHT22;22480;50.546;12.292;2024-01-06T12:22:55;5.00;99.90
36458;DHT22;22480;50.546;12.292;2024-01-06T12:25:23;5.00;99.90
36458;DHT22;22480;50.546;12.292;2024-01-06T12:27:49;5.10;99.90
36458;DHT22;22480;50.546;12.292;2024-01-06T12:30:17;5.10;99.90
36458;DHT22;22480;50.546;12.292;2024-01-06T12:32:48;5.20;99.90
36458;DHT22;22480;50.546;12.292;2024-01-06T12:35:18;5.30;99.90
36458;DHT22;22480;50.546;12.292;2024-01-06T12:37:45;5.10;99.90
36458;DHT22;22480;50.546;12.292;2024-01-06T12:40:12;5.10;99.90
36458;DHT22;22480;50.546;12.292;2024-01-06T12:42:38;5.20;99.90
36458;DHT22;22480;50.546;12.292;2024-01-06T12:45:06;5.20;99.90
36458;DHT22;22480;50.546;12.292;2024-01-06T12:47:33;5.30;99.90
36458;DHT22;22480;50.546;12.292;2024-01-06T12:49:58;5.30;99.90
36458;DHT22;22480;50.546;12.292;2024-01-06T12:52:24;5.30;99.90
36458;DHT22;22480;50.546;12.292;2024-01-06T12:54:50;5.40;99.90
36458;DHT22;22480;50.546;12.292;2024-01-06T12:57:16;5.60;99.90
36458;DHT22;22480;50.546;12.292;2024-01-06T12:59:42;5.70;99.90
36458;DHT22;22480;50.546;12.292;2024-01-06T13:02:08;5.90;99.90
36458;DHT22;22480;50.546;12.292;2024-01-06T13:04:34;5.90;99.90
36458;DHT22;22480;50.546;12.292;2024-01-06T13:07:00;5.90;99.90
36458;DHT22;22480;50.546;12.292;2024-01-06T13:09:27;5.90;99.90
36458;DHT22;22480;50.546;12.292;2024-01-06T13:11:53;5.90;99.90
36458;DHT22;22480;50.546;12.292;2024-01-06T13:14:21;5.90;99.90
36458;DHT22;22480;50.546;12.292;2024-01-06T13:16:47;6.00;99.90
36458;DHT22;22480;50.546;12.292;2024-01-06T13:19:12;6.10;99.90
36458;DHT22;22480;50.546;12.292;2024-01-06T13:21:38;6.00;99.90
36458;DHT22;22480;50.546;12.292;2024-01-06T13:24:06;6.10;99.90
36458;DHT22;22480;50.546;12.292;2024-01-06T13:26:32;6.00;99.90
36458;DHT22;22480;50.546;12.292;2024-01-06T13:28:58;5.90;99.90
36458;DHT22;22480;50.546;12.292;2024-01-06T13:31:24;5.80;99.90
36458;DHT22;22480;50.546;12.292;2024-01-06T13:33:50;5.80;99.90
36458;DHT22;22480;50.546;12.292;2024-01-06T13:36:19;5.60;99.90
36458;DHT22;22480;50.546;12.292;2024-01-06T13:38:45;5.50;99.90
36458;DHT22;22480;50.546;12.292;2024-01-06T13:41:11;5.50;99.90
36458;DHT22;22480;50.546;12.292;2024-01-06T13:43:37;5.40;99.90
36458;DHT22;22480;50.546;12.292;2024-01-06T13:46:03;5.30;99.90
36458;DHT22;22480;50.546;12.292;2024-01-06T13:48:28;5.30;99.90
36458;DHT22;22480;50.546;12.292;2024-01-06T13:50:54;5.20;99.90
36458;DHT22;22480;50.546;12.292;2024-01-06T13:53:20;5.20;99.90
36458;DHT22;22480;50.546;12.292;2024-01-06T13:55:46;5.20;99.90
36458;DHT22;22480;50.546;12.292;2024-01-06T13:58:11;5.10;99.90
36458;DHT22;22480;50.546;12.292;2024-01-06T14:00:37;5.00;99.90
36458;DHT22;22480;50.546;12.292;2024-01-06T14:03:03;4.90;99.90
36458;DHT22;22480;50.546;12.292;2024-01-06T14:05:30;4.80;99.90
36458;DHT22;22480;50.546;12.292;2024-01-06T14:07:56;4.80;99.90
36458;DHT22;22480;50.546;12.292;2024-01-06T14:10:21;4.80;99.90
36458;DHT22;22480;50.546;12.292;2024-01-06T14:12:47;4.70;99.90
36458;DHT22;22480;50.546;12.292;2024-01-06T14:15:13;4.70;99.90
36458;DHT22;22480;50.546;12.292;2024-01-06T14:17:39;4.60;99.90
36458;DHT22;22480;50.546;12.292;2024-01-06T14:20:07;4.60;99.90
36458;DHT22;22480;50.546;12.292;2024-01-06T14:22:34;4.50;99.90
36458;DHT22;22480;50.546;12.292;2024-01-06T14:25:00;4.50;99.90
36458;DHT22;22480;50.546;12.292;2024-01-06T14:27:26;4.40;99.90
36458;DHT22;22480;50.546;12.292;2024-01-06T14:29:52;4.40;99.90
36458;DHT22;22480;50.546;12.292;2024-01-06T14:32:21;4.30;99.90
36458;DHT22;22480;50.546;12.292;2024-01-06T14:34:49;4.20;99.90
36458;DHT22;22480;50.546;12.292;2024-01-06T14:37:16;4.10;99.90
36458;DHT22;22480;50.546;12.292;2024-01-06T14:39:42;4.10;99.90
36458;DHT22;22480;50.546;12.292;2024-01-06T14:42:07;4.00;99.90
36458;DHT22;22480;50.546;12.292;2024-01-06T14:44:33;4.00;99.90
36458;DHT22;22480;50.546;12.292;2024-01-06T14:46:59;4.00;99.90
36458;DHT22;22480;50.546;12.292;2024-01-06T14:49:24;3.90;99.90
36458;DHT22;22480;50.546;12.292;2024-01-06T14:51:50;3.90;99.90
36458;DHT22;22480;50.546;12.292;2024-01-06T14:54:16;3.80;99.90
36458;DHT22;22480;50.546;12.292;2024-01-06T14:56:41;3.80;99.90
36458;DHT22;22480;50.546;12.292;2024-01-06T14:59:08;3.70;99.90
36458;DHT22;22480;50.546;12.292;2024-01-06T15:01:33;3.70;99.90
36458;DHT22;22480;50.546;12.292;2024-01-06T15:03:59;3.70;99.90
36458;DHT22;22480;50.546;12.292;2024-01-06T15:06:25;3.60;99.90
36458;DHT22;22480;50.546;12.292;2024-01-06T15:08:50;3.60;99.90
36458;DHT22;22480;50.546;12.292;2024-01-06T15:11:16;3.60;99.90
36458;DHT22;22480;50.546;12.292;2024-01-06T15:13:42;3.60;99.90
36458;DHT22;22480;50.546;12.292;2024-01-06T15:16:07;3.50;99.90
36458;DHT22;22480;50.546;12.292;2024-01-06T15:18:33;3.50;99.90
36458;DHT22;22480;50.546;12.292;2024-01-06T15:21:01;3.50;99.90
36458;DHT22;22480;50.546;12.292;2024-01-06T15:23:27;3.50;99.90
36458;DHT22;22480;50.546;12.292;2024-01-06T15:25:52;3.50;99.90
36458;DHT22;22480;50.546;12.292;2024-01-06T15:28:18;3.50;99.90
36458;DHT22;22480;50.546;12.292;2024-01-06T15:30:45;3.50;99.90
36458;DHT22;22480;50.546;12.292;2024-01-06T15:33:10;3.40;99.90